Time;durP1;ratioP1;P1;durP2;ratioP2;P2;SDS_P1;SDS_P2;PMS_P1;PMS_P2;Temp;Humidity;BMP_temperature;BMP_pressure;BME280_temperature;BME280_humidity;BME280_pressure;Samples;Min_cycle;Max_cycle;Signal;HPM_P1;HPM_P2
2020/12/28 00:02:24;;;;;;;10.53;5.43;;;4.40;99.90;;;;;;5061685;28;20213;-79
2020/12/28 00:04:50;;;;;;;10.63;5.10;;;4.30;99.90;;;;;;5063879;28;20224;-79
2020/12/28 00:07:17;;;;;;;10.67;5.60;;;4.20;99.90;;;;;;5059600;28;20232;-80
2020/12/28 00:09:44;;;;;;;10.33;5.13;;;4.10;99.90;;;;;;5062061;28;20205;-79
2020/12/28 00:12:10;;;;;;;14.87;5.87;;;4.30;99.90;;;;;;5051659;28;20204;-79
2020/12/28 00:14:36;;;;;;;11.97;6.03;;;4.10;99.90;;;;;;5061815;28;20206;-79
2020/12/28 00:17:03;;;;;;;8.47;5.20;;;4.10;99.90;;;;;;5051730;28;20255;-79
2020/12/28 00:19:29;;;;;;;11.87;5.23;;;4.30;99.90;;;;;;5051762;28;20223;-79
2020/12/28 00:21:55;;;;;;;14.37;5.40;;;4.30;99.90;;;;;;5051652;28;20381;-80
2020/12/28 00:24:23;;;;;;;8.80;5.03;;;4.10;99.90;;;;;;5051686;28;20228;-79
2020/12/28 00:26:49;;;;;;;11.40;4.97;;;4.00;99.90;;;;;;5051864;28;20556;-79
2020/12/28 00:29:15;;;;;;;8.10;5.23;;;4.10;99.90;;;;;;5064452;28;20207;-79
2020/12/28 00:31:42;;;;;;;11.37;5.07;;;4.10;99.90;;;;;;5051703;28;20655;-79
2020/12/28 00:34:09;;;;;;;11.27;4.63;;;4.10;99.90;;;;;;5051390;28;20650;-80
2020/12/28 00:36:36;;;;;;;13.87;5.40;;;4.10;99.90;;;;;;5051788;28;20304;-79
2020/12/28 00:39:04;;;;;;;12.73;5.13;;;4.00;99.90;;;;;;5058214;28;20201;-79
2020/12/28 00:41:32;;;;;;;9.07;4.53;;;3.90;99.90;;;;;;5060010;28;20202;-80
2020/12/28 00:43:58;;;;;;;12.70;4.23;;;3.80;99.90;;;;;;5051922;28;20213;-80
2020/12/28 00:46:25;;;;;;;8.47;4.53;;;3.80;99.90;;;;;;5054232;28;20201;-80
2020/12/28 00:48:51;;;;;;;8.67;3.90;;;3.70;99.90;;;;;;5056377;28;20554;-80
2020/12/28 00:51:18;;;;;;;7.07;3.97;;;3.60;99.90;;;;;;5053565;28;20214;-80
2020/12/28 00:53:44;;;;;;;10.67;4.07;;;3.70;99.90;;;;;;5055204;28;20205;-79
2020/12/28 00:56:13;;;;;;;8.97;4.07;;;3.60;99.90;;;;;;5055178;28;20202;-79
2020/12/28 00:58:40;;;;;;;9.20;4.20;;;3.50;99.90;;;;;;5054434;28;20270;-79
2020/12/28 01:01:08;;;;;;;5.87;3.87;;;3.50;99.90;;;;;;5053963;28;20545;-79
2020/12/28 01:03:34;;;;;;;7.50;4.00;;;3.50;99.90;;;;;;5058624;28;20266;-80
2020/12/28 01:06:02;;;;;;;8.07;3.23;;;3.50;99.90;;;;;;5056058;28;20204;-79
2020/12/28 01:08:29;;;;;;;9.20;3.97;;;3.50;99.90;;;;;;5056097;28;20201;-79
2020/12/28 01:10:55;;;;;;;8.20;3.33;;;3.50;99.90;;;;;;5056532;28;20197;-79
2020/12/28 01:13:21;;;;;;;7.23;3.50;;;3.50;99.90;;;;;;5056214;28;20242;-79
2020/12/28 01:15:49;;;;;;;8.13;3.77;;;3.50;99.90;;;;;;5062423;28;20208;-79
2020/12/28 01:18:15;;;;;;;7.70;3.53;;;3.60;99.90;;;;;;5056032;28;20290;-79
2020/12/28 01:20:41;;;;;;;8.40;4.07;;;3.50;99.90;;;;;;5057244;28;20222;-80
2020/12/28 01:23:08;;;;;;;8.50;4.10;;;3.50;99.90;;;;;;5055228;28;20217;-79
2020/12/28 01:25:34;;;;;;;10.90;4.10;;;3.60;99.90;;;;;;5055310;28;20225;-79
2020/12/28 01:28:00;;;;;;;12.63;4.70;;;3.60;99.90;;;;;;5054856;28;20288;-79
2020/12/28 01:30:27;;;;;;;15.10;4.47;;;3.60;99.90;;;;;;5054808;28;20253;-80
2020/12/28 01:32:54;;;;;;;10.80;4.40;;;3.60;99.90;;;;;;5053184;28;20292;-79
2020/12/28 01:35:20;;;;;;;10.60;4.17;;;3.70;99.90;;;;;;5058260;28;20193;-79
2020/12/28 01:37:47;;;;;;;14.67;4.60;;;3.70;99.90;;;;;;5055448;28;20200;-80
2020/12/28 01:40:14;;;;;;;11.83;4.57;;;3.70;99.90;;;;;;5056394;28;20204;-79
2020/12/28 01:42:41;;;;;;;12.13;4.97;;;3.60;99.90;;;;;;5054368;28;20205;-79
2020/12/28 01:45:07;;;;;;;15.17;4.50;;;3.60;99.90;;;;;;5053687;28;20286;-80
2020/12/28 01:47:33;;;;;;;11.77;5.30;;;3.60;99.90;;;;;;5053552;28;20743;-79
2020/12/28 01:50:01;;;;;;;14.43;5.27;;;3.50;99.90;;;;;;5055376;28;20204;-79
2020/12/28 01:52:28;;;;;;;18.07;5.47;;;3.60;99.90;;;;;;5056682;28;20296;-79
2020/12/28 01:54:55;;;;;;;15.77;5.33;;;3.60;99.90;;;;;;5054686;28;20266;-79
2020/12/28 01:57:22;;;;;;;13.83;5.17;;;3.70;99.90;;;;;;5054234;28;20658;-79
2020/12/28 01:59:48;;;;;;;18.17;5.87;;;3.60;99.90;;;;;;5052981;28;20296;-79
2020/12/28 02:02:18;;;;;;;14.87;5.20;;;3.70;99.90;;;;;;5053081;28;20209;-80
2020/12/28 02:04:44;;;;;;;13.70;5.27;;;3.70;99.90;;;;;;5055804;28;20229;-79
2020/12/28 02:07:13;;;;;;;12.27;5.00;;;3.70;99.90;;;;;;5055213;28;20201;-80
2020/12/28 02:09:45;;;;;;;10.77;5.20;;;3.70;99.90;;;;;;5056440;28;20243;-79
2020/12/28 02:12:12;;;;;;;11.63;4.90;;;3.70;99.90;;;;;;5054550;28;20212;-79
2020/12/28 02:14:38;;;;;;;11.30;5.03;;;3.70;99.90;;;;;;5054222;28;20204;-79
2020/12/28 02:17:05;;;;;;;12.30;5.10;;;3.70;99.90;;;;;;5053387;28;20193;-80
2020/12/28 02:19:31;;;;;;;12.57;4.70;;;3.70;99.90;;;;;;5052747;28;20209;-80
2020/12/28 02:21:58;;;;;;;10.33;5.17;;;3.60;99.90;;;;;;5055269;28;20683;-80
2020/12/28 02:24:24;;;;;;;10.40;5.00;;;3.60;99.90;;;;;;5054735;28;20277;-79
2020/12/28 02:26:51;;;;;;;13.10;5.47;;;3.70;99.90;;;;;;5053153;28;20197;-79
2020/12/28 02:29:18;;;;;;;13.00;4.97;;;3.60;99.90;;;;;;5052542;28;20209;-80
2020/12/28 02:31:44;;;;;;;14.23;5.10;;;3.60;99.90;;;;;;5054741;28;20634;-79
2020/12/28 02:34:10;;;;;;;9.13;4.57;;;3.60;99.90;;;;;;5054473;28;20201;-79
2020/12/28 02:36:37;;;;;;;8.30;4.77;;;3.60;99.90;;;;;;5055584;28;20207;-80
2020/12/28 02:39:04;;;;;;;10.53;4.30;;;3.50;99.90;;;;;;5053534;28;20198;-80
2020/12/28 02:41:30;;;;;;;8.53;4.30;;;3.50;99.90;;;;;;5053973;28;20201;-80
2020/12/28 02:43:57;;;;;;;9.40;4.53;;;3.60;99.90;;;;;;5052428;28;20311;-80
2020/12/28 02:46:23;;;;;;;14.07;4.60;;;3.50;99.90;;;;;;5052334;28;20200;-79
2020/12/28 02:48:49;;;;;;;8.90;4.10;;;3.60;99.90;;;;;;5054357;28;20658;-79
2020/12/28 02:51:16;;;;;;;9.07;4.43;;;3.60;99.90;;;;;;5054038;28;20205;-79
2020/12/28 02:53:42;;;;;;;7.43;4.00;;;3.70;99.90;;;;;;5055839;28;20201;-80
2020/12/28 02:56:09;;;;;;;6.87;4.00;;;3.70;99.90;;;;;;5053765;28;20200;-79
2020/12/28 02:58:35;;;;;;;9.00;4.27;;;3.70;99.90;;;;;;5053319;28;20339;-79
2020/12/28 03:01:02;;;;;;;9.83;4.33;;;3.70;99.90;;;;;;5052243;28;20289;-79
2020/12/28 03:03:28;;;;;;;9.97;4.33;;;3.70;99.90;;;;;;5052240;28;20231;-79
2020/12/28 03:05:54;;;;;;;8.13;4.10;;;3.60;99.90;;;;;;5053895;28;20291;-79
2020/12/28 03:08:21;;;;;;;8.60;4.57;;;3.50;99.90;;;;;;5053872;28;20210;-79
2020/12/28 03:10:47;;;;;;;9.40;4.13;;;3.60;99.90;;;;;;5054576;28;20296;-79
2020/12/28 03:13:14;;;;;;;9.63;4.40;;;3.50;99.90;;;;;;5052758;28;20201;-79
2020/12/28 03:15:40;;;;;;;7.47;4.37;;;3.70;99.90;;;;;;5053557;28;20219;-79
2020/12/28 03:18:07;;;;;;;9.33;4.23;;;3.50;99.90;;;;;;5051941;28;20204;-80
2020/12/28 03:20:33;;;;;;;7.40;4.10;;;3.50;99.90;;;;;;5051638;28;20216;-79
2020/12/28 03:23:00;;;;;;;7.33;4.10;;;3.40;99.90;;;;;;5055174;28;20204;-79
2020/12/28 03:25:26;;;;;;;8.30;4.10;;;3.50;99.90;;;;;;5052205;28;20574;-79
2020/12/28 03:27:52;;;;;;;10.27;4.27;;;3.50;99.90;;;;;;5052513;28;20878;-79
2020/12/28 03:30:19;;;;;;;14.30;4.23;;;3.50;99.90;;;;;;5051642;28;20296;-79
2020/12/28 03:32:46;;;;;;;8.30;4.10;;;3.50;99.90;;;;;;5065007;28;20253;-79
2020/12/28 03:35:12;;;;;;;6.57;3.87;;;3.50;99.90;;;;;;5071795;28;20204;-79
2020/12/28 03:37:38;;;;;;;7.80;3.70;;;3.50;99.90;;;;;;5072038;28;20295;-79
2020/12/28 03:40:05;;;;;;;7.67;4.10;;;3.50;99.90;;;;;;5071467;28;20876;-79
2020/12/28 03:42:31;;;;;;;6.23;3.90;;;3.40;99.90;;;;;;5071958;28;20662;-79
2020/12/28 03:44:58;;;;;;;13.47;4.10;;;3.30;99.90;;;;;;5071813;28;20686;-79
2020/12/28 03:47:25;;;;;;;6.20;3.27;;;3.40;99.90;;;;;;5072191;28;20204;-80
2020/12/28 03:49:51;;;;;;;6.90;3.50;;;3.30;99.90;;;;;;5072097;28;20287;-79
2020/12/28 03:52:18;;;;;;;10.00;3.73;;;3.30;99.90;;;;;;5071815;28;20291;-79
2020/12/28 03:54:46;;;;;;;7.40;4.10;;;3.30;99.90;;;;;;5071906;28;20294;-80
2020/12/28 03:57:13;;;;;;;8.23;3.83;;;3.20;99.90;;;;;;5071844;28;20204;-80
2020/12/28 03:59:39;;;;;;;8.63;4.30;;;3.30;99.90;;;;;;5071894;28;20204;-80
2020/12/28 04:02:06;;;;;;;10.70;4.93;;;3.30;99.90;;;;;;5071472;28;20204;-80
2020/12/28 04:04:33;;;;;;;10.23;4.47;;;3.30;99.90;;;;;;5071709;28;20664;-80
2020/12/28 04:06:59;;;;;;;11.83;4.20;;;3.30;99.90;;;;;;5071597;28;20293;-79
2020/12/28 04:09:26;;;;;;;10.03;4.60;;;3.20;99.90;;;;;;5072064;28;20325;-80
2020/12/28 04:11:52;;;;;;;9.50;3.90;;;3.20;99.90;;;;;;5071931;28;20204;-80
2020/12/28 04:14:18;;;;;;;10.87;3.83;;;3.10;99.90;;;;;;5071508;28;20208;-80
2020/12/28 04:16:44;;;;;;;13.63;4.20;;;3.10;99.90;;;;;;5071839;28;20274;-80
2020/12/28 04:19:11;;;;;;;8.17;3.83;;;3.20;99.90;;;;;;5071389;28;20223;-80
2020/12/28 04:21:38;;;;;;;8.43;4.13;;;3.10;99.90;;;;;;5072758;28;20736;-80
2020/12/28 04:24:04;;;;;;;11.33;4.40;;;3.20;99.90;;;;;;5075166;28;20281;-80
2020/12/28 04:26:31;;;;;;;8.93;4.27;;;3.30;99.90;;;;;;5058153;28;20204;-79
2020/12/28 04:28:57;;;;;;;13.13;5.00;;;3.30;99.90;;;;;;5055616;28;20667;-80
2020/12/28 04:31:23;;;;;;;10.90;4.57;;;3.30;99.90;;;;;;5055540;28;20197;-80
2020/12/28 04:33:50;;;;;;;8.80;4.23;;;3.30;99.90;;;;;;5056171;28;20281;-80
2020/12/28 04:36:16;;;;;;;7.97;4.30;;;3.30;99.90;;;;;;5056620;28;20292;-80
2020/12/28 04:38:43;;;;;;;10.33;4.27;;;3.40;99.90;;;;;;5055349;28;20712;-80
2020/12/28 04:41:10;;;;;;;12.90;4.47;;;3.40;99.90;;;;;;5055502;28;20485;-80
2020/12/28 04:43:36;;;;;;;14.50;4.30;;;3.50;99.90;;;;;;5055172;28;20217;-80
2020/12/28 04:46:04;;;;;;;13.33;4.17;;;3.40;99.90;;;;;;5055330;28;20570;-80
2020/12/28 04:48:32;;;;;;;12.93;4.17;;;3.40;99.90;;;;;;5054815;28;20201;-79
2020/12/28 04:50:59;;;;;;;12.53;4.10;;;3.50;99.90;;;;;;5054982;28;20202;-80
2020/12/28 04:53:26;;;;;;;13.90;3.93;;;3.50;99.90;;;;;;5055252;28;20205;-79
2020/12/28 04:55:53;;;;;;;10.87;3.97;;;3.50;99.90;;;;;;5055254;28;20256;-80
2020/12/28 04:58:19;;;;;;;11.33;4.33;;;3.60;99.90;;;;;;5054832;28;20243;-80
2020/12/28 05:00:46;;;;;;;9.43;3.47;;;3.50;99.90;;;;;;5054983;28;20237;-80
2020/12/28 05:03:12;;;;;;;11.47;3.90;;;3.40;99.90;;;;;;5054757;28;20205;-79
2020/12/28 05:05:45;;;;;;;13.03;3.53;;;3.40;99.90;;;;;;5054633;28;20231;-79
2020/12/28 05:08:11;;;;;;;11.90;3.40;;;3.40;99.90;;;;;;5054942;28;20220;-80
2020/12/28 05:10:38;;;;;;;8.83;3.53;;;3.30;99.90;;;;;;5054457;28;20210;-79
2020/12/28 05:13:08;;;;;;;17.87;3.40;;;3.30;99.90;;;;;;5054810;28;20255;-79
2020/12/28 05:15:35;;;;;;;9.10;3.33;;;3.20;99.90;;;;;;5054281;28;20201;-79
2020/12/28 05:18:01;;;;;;;8.83;2.87;;;3.30;99.90;;;;;;5054762;28;20201;-80
2020/12/28 05:20:28;;;;;;;13.40;4.47;;;3.30;99.90;;;;;;5054002;28;20454;-79
2020/12/28 05:22:55;;;;;;;11.80;3.27;;;3.40;99.90;;;;;;5055855;28;20300;-79
2020/12/28 05:25:23;;;;;;;17.67;3.60;;;3.40;99.90;;;;;;5066524;28;20291;-79
2020/12/28 05:27:50;;;;;;;16.53;2.97;;;3.40;99.90;;;;;;5054544;28;20313;-80
2020/12/28 05:30:20;;;;;;;9.50;3.10;;;3.50;99.90;;;;;;5054448;28;20347;-79
2020/12/28 05:32:47;;;;;;;11.77;3.33;;;3.60;99.90;;;;;;5053939;28;20572;-79
2020/12/28 05:35:15;;;;;;;11.60;3.07;;;3.80;99.90;;;;;;5053925;28;20583;-80
2020/12/28 05:37:42;;;;;;;12.73;2.47;;;3.80;99.90;;;;;;5054271;28;20227;-80
2020/12/28 05:40:11;;;;;;;13.53;3.00;;;3.80;99.90;;;;;;5054068;28;20236;-80
2020/12/28 05:42:48;;;;;;;10.33;2.53;;;3.90;99.90;;;;;;5054268;28;20565;-79
2020/12/28 05:45:14;;;;;;;13.00;2.63;;;3.80;99.90;;;;;;5053766;28;20232;-79
2020/12/28 05:47:42;;;;;;;10.07;2.53;;;3.80;99.90;;;;;;5054247;28;20284;-80
2020/12/28 05:50:09;;;;;;;14.53;2.83;;;3.80;99.90;;;;;;5053595;28;20205;-79
2020/12/28 05:52:38;;;;;;;7.00;2.77;;;3.70;99.90;;;;;;5054085;28;20207;-79
2020/12/28 05:55:05;;;;;;;13.67;2.43;;;3.70;99.90;;;;;;5053604;28;20231;-80
2020/12/28 05:57:31;;;;;;;12.40;2.70;;;3.70;99.90;;;;;;5053928;28;20617;-79
2020/12/28 05:59:58;;;;;;;8.37;2.30;;;3.70;99.90;;;;;;5053672;28;20202;-80
2020/12/28 06:02:27;;;;;;;11.87;2.70;;;3.70;99.90;;;;;;5053620;28;20292;-79
2020/12/28 06:04:55;;;;;;;10.70;3.03;;;3.70;99.90;;;;;;5053559;28;20724;-79
2020/12/28 06:07:22;;;;;;;9.57;2.40;;;3.70;99.90;;;;;;5053501;28;20700;-79
2020/12/28 06:09:58;;;;;;;13.63;2.30;;;3.70;99.90;;;;;;5053689;28;20311;-79
2020/12/28 06:12:24;;;;;;;13.40;2.30;;;3.70;99.90;;;;;;5055147;28;20262;-80
2020/12/28 06:14:51;;;;;;;11.97;2.20;;;3.70;99.90;;;;;;5053057;28;20216;-79
2020/12/28 06:17:17;;;;;;;11.40;1.90;;;3.70;99.90;;;;;;5055087;28;20200;-80
2020/12/28 06:19:44;;;;;;;6.77;2.20;;;3.60;99.90;;;;;;5053057;28;20209;-80
2020/12/28 06:22:21;;;;;;;7.37;1.97;;;3.50;99.90;;;;;;5054814;28;20219;-79
2020/12/28 06:25:01;;;;;;;14.30;1.93;;;3.50;99.90;;;;;;5064214;28;20553;-79
2020/12/28 06:27:30;;;;;;;9.93;1.90;;;3.50;99.90;;;;;;5060065;28;20288;-79
2020/12/28 06:30:10;;;;;;;9.17;1.97;;;3.40;99.90;;;;;;5059206;28;20201;-79
2020/12/28 06:32:37;;;;;;;7.00;1.63;;;3.40;99.90;;;;;;5054347;28;20204;-79
2020/12/28 06:35:06;;;;;;;7.50;1.63;;;3.50;99.90;;;;;;5055536;28;20228;-79
2020/12/28 06:37:42;;;;;;;10.73;1.63;;;3.40;99.90;;;;;;5056523;28;20205;-79
2020/12/28 06:40:09;;;;;;;10.77;1.70;;;3.50;99.90;;;;;;5071735;28;20204;-80
2020/12/28 06:42:35;;;;;;;5.67;1.67;;;3.50;99.90;;;;;;5064631;28;21006;-79
2020/12/28 06:45:13;;;;;;;11.73;2.07;;;3.50;99.90;;;;;;5067172;28;20225;-79
2020/12/28 06:47:39;;;;;;;5.13;1.70;;;3.50;99.90;;;;;;5072255;28;20675;-79
2020/12/28 06:50:06;;;;;;;6.00;1.60;;;3.40;99.90;;;;;;5071947;28;20295;-79
2020/12/28 06:52:32;;;;;;;12.83;1.70;;;3.40;99.90;;;;;;5072203;28;20209;-80
2020/12/28 06:55:07;;;;;;;9.17;1.40;;;3.50;99.90;;;;;;5072112;28;20213;-79
2020/12/28 06:57:34;;;;;;;11.27;1.60;;;3.60;99.90;;;;;;5072290;28;20210;-80
2020/12/28 07:00:00;;;;;;;8.60;1.63;;;3.50;99.90;;;;;;5072195;28;20666;-80
2020/12/28 07:02:28;;;;;;;12.37;1.73;;;3.60;99.90;;;;;;5071762;28;20212;-80
2020/12/28 07:04:55;;;;;;;9.43;1.67;;;3.60;99.90;;;;;;5072201;28;20667;-79
2020/12/28 07:07:21;;;;;;;10.57;1.70;;;3.60;99.90;;;;;;5072013;28;20347;-78
2020/12/28 07:09:48;;;;;;;8.90;1.73;;;3.60;99.90;;;;;;5064352;28;20213;-80
2020/12/28 07:12:16;;;;;;;9.90;1.80;;;3.60;99.90;;;;;;5067333;28;20203;-79
2020/12/28 07:14:42;;;;;;;7.27;1.30;;;3.50;99.90;;;;;;5072165;28;20289;-79
2020/12/28 07:17:08;;;;;;;5.67;1.43;;;3.40;99.90;;;;;;5054538;28;20632;-79
2020/12/28 07:19:35;;;;;;;6.00;1.47;;;3.30;99.90;;;;;;5058028;28;20213;-79
2020/12/28 07:22:01;;;;;;;6.80;1.40;;;3.50;99.90;;;;;;5062171;28;20285;-79
2020/12/28 07:24:28;;;;;;;8.03;1.40;;;3.40;99.90;;;;;;5068360;28;20315;-79
2020/12/28 07:26:55;;;;;;;9.73;1.70;;;3.50;99.90;;;;;;5051311;28;20293;-79
2020/12/28 07:29:23;;;;;;;14.30;1.90;;;3.50;99.90;;;;;;5051524;28;20242;-79
2020/12/28 07:31:49;;;;;;;11.97;1.50;;;3.50;99.90;;;;;;5051108;28;20198;-79
2020/12/28 07:34:17;;;;;;;8.17;1.53;;;3.50;99.90;;;;;;5050219;28;20684;-79
2020/12/28 07:36:45;;;;;;;7.67;1.43;;;3.50;99.90;;;;;;5051497;28;20210;-80
2020/12/28 07:39:12;;;;;;;4.37;1.23;;;3.40;99.90;;;;;;5060573;28;20201;-79
2020/12/28 07:41:39;;;;;;;8.97;1.87;;;3.40;99.90;;;;;;5050426;28;20201;-79
2020/12/28 07:44:06;;;;;;;8.07;2.00;;;3.50;99.90;;;;;;5050815;28;20227;-79
2020/12/28 07:46:47;;;;;;;8.43;1.70;;;3.50;99.90;;;;;;5051150;28;20213;-79
2020/12/28 07:49:19;;;;;;;18.53;2.37;;;3.40;99.90;;;;;;5052036;28;20211;-79
2020/12/28 07:51:51;;;;;;;9.97;1.50;;;3.50;99.90;;;;;;5049991;28;20209;-79
2020/12/28 07:54:22;;;;;;;9.57;1.73;;;3.40;99.90;;;;;;5061186;28;20200;-79
2020/12/28 07:56:51;;;;;;;4.47;1.27;;;3.50;99.90;;;;;;5067888;28;20200;-80
2020/12/28 07:59:46;;;;;;;5.03;1.30;;;3.40;99.90;;;;;;5065971;28;20207;-80
2020/12/28 08:02:32;;;;;;;12.00;1.87;;;3.30;99.90;;;;;;5065358;28;20207;-81
2020/12/28 08:05:00;;;;;;;11.80;1.53;;;3.30;99.90;;;;;;5068440;28;20236;-81
2020/12/28 08:07:26;;;;;;;12.17;1.57;;;3.30;99.90;;;;;;5055724;28;20651;-81
2020/12/28 08:09:53;;;;;;;10.30;1.57;;;3.20;99.90;;;;;;5056076;28;20196;-81
2020/12/28 08:12:20;;;;;;;10.57;1.63;;;3.10;99.90;;;;;;5055915;28;20336;-81
2020/12/28 08:14:51;;;;;;;7.17;1.40;;;3.00;99.90;;;;;;5060774;28;20197;-80
2020/12/28 08:17:22;;;;;;;6.87;1.67;;;3.00;99.90;;;;;;5075045;28;20209;-80
2020/12/28 08:19:49;;;;;;;12.43;1.93;;;3.00;99.90;;;;;;5074854;28;20249;-80
2020/12/28 08:22:19;;;;;;;8.73;1.93;;;3.10;99.90;;;;;;5075043;28;20201;-80
2020/12/28 08:24:46;;;;;;;8.57;2.00;;;3.00;99.90;;;;;;5072023;28;20212;-80
2020/12/28 08:27:12;;;;;;;12.23;2.80;;;3.10;99.90;;;;;;5073725;28;20434;-81
2020/12/28 08:29:38;;;;;;;9.87;2.43;;;3.10;99.90;;;;;;5071237;28;20254;-81
2020/12/28 08:32:05;;;;;;;8.77;1.80;;;3.20;99.90;;;;;;5074454;28;20212;-81
2020/12/28 08:34:34;;;;;;;5.30;2.13;;;3.30;99.90;;;;;;5074313;28;20209;-80
2020/12/28 08:37:01;;;;;;;8.50;2.37;;;3.40;99.90;;;;;;5074720;28;20204;-80
2020/12/28 08:39:27;;;;;;;9.00;2.17;;;3.40;99.90;;;;;;5060909;28;20292;-80
2020/12/28 08:41:54;;;;;;;9.63;1.97;;;3.50;99.90;;;;;;5074557;28;20200;-80
2020/12/28 08:44:25;;;;;;;7.87;2.20;;;3.40;99.90;;;;;;5074654;28;20221;-81
2020/12/28 08:46:51;;;;;;;7.17;1.77;;;3.50;99.90;;;;;;5060005;28;20205;-80
2020/12/28 08:49:24;;;;;;;10.40;2.03;;;3.50;99.90;;;;;;5065661;28;20213;-79
2020/12/28 08:51:52;;;;;;;10.13;2.37;;;3.40;99.90;;;;;;5074148;28;20688;-80
2020/12/28 08:54:26;;;;;;;7.47;2.10;;;3.50;99.90;;;;;;5072062;28;20201;-81
2020/12/28 08:56:52;;;;;;;11.50;1.97;;;3.50;99.90;;;;;;5074100;28;20193;-80
2020/12/28 08:59:18;;;;;;;7.60;2.33;;;3.50;99.90;;;;;;5072224;28;20295;-80
2020/12/28 09:01:45;;;;;;;8.93;1.73;;;3.60;99.90;;;;;;5072850;28;20205;-80
2020/12/28 09:04:12;;;;;;;5.90;1.73;;;3.70;99.90;;;;;;5063935;28;20695;-80
2020/12/28 09:06:40;;;;;;;9.93;2.13;;;3.70;99.90;;;;;;5054989;28;20214;-80
2020/12/28 09:09:08;;;;;;;11.83;2.40;;;3.70;99.90;;;;;;5057186;28;20559;-81
2020/12/28 09:11:34;;;;;;;8.93;2.23;;;3.70;99.90;;;;;;5064981;28;20204;-80
2020/12/28 09:14:00;;;;;;;6.10;2.20;;;3.80;99.90;;;;;;5060365;28;20202;-80
2020/12/28 09:16:27;;;;;;;9.17;2.80;;;3.80;99.90;;;;;;5056187;28;20221;-80
2020/12/28 09:18:53;;;;;;;9.90;2.17;;;3.90;99.90;;;;;;5059852;28;20663;-81
2020/12/28 09:21:21;;;;;;;10.17;2.20;;;3.90;99.90;;;;;;5069873;28;20259;-80
2020/12/28 09:23:47;;;;;;;6.57;2.30;;;3.80;99.90;;;;;;5062021;28;20752;-81
2020/12/28 09:26:14;;;;;;;6.07;2.10;;;3.90;99.90;;;;;;5060879;28;20231;-81
2020/12/28 09:28:41;;;;;;;8.03;2.27;;;4.00;99.90;;;;;;5070974;28;20572;-80
2020/12/28 09:31:07;;;;;;;6.17;1.90;;;4.00;99.90;;;;;;5073944;28;20208;-80
2020/12/28 09:33:33;;;;;;;6.67;2.30;;;3.90;99.90;;;;;;5070924;28;20242;-81
2020/12/28 09:36:00;;;;;;;6.73;2.37;;;3.90;99.90;;;;;;5072222;28;20201;-80
2020/12/28 09:38:26;;;;;;;14.53;2.67;;;4.00;99.90;;;;;;5069170;28;20215;-81
2020/12/28 09:40:52;;;;;;;7.27;2.53;;;4.10;99.90;;;;;;5065374;28;20210;-80
2020/12/28 09:43:20;;;;;;;12.13;3.37;;;4.30;99.90;;;;;;5072032;28;20216;-81
2020/12/28 09:45:46;;;;;;;12.40;2.73;;;4.20;99.90;;;;;;5070684;28;20256;-80
2020/12/28 09:48:12;;;;;;;6.90;2.47;;;4.30;99.90;;;;;;5069852;28;20200;-80
2020/12/28 09:50:39;;;;;;;6.57;2.13;;;4.40;99.90;;;;;;5066640;28;20210;-80
2020/12/28 09:53:05;;;;;;;6.80;2.50;;;4.40;99.90;;;;;;5066939;28;20208;-80
2020/12/28 09:55:31;;;;;;;7.70;2.70;;;4.40;99.90;;;;;;5064492;28;20200;-80
2020/12/28 09:57:58;;;;;;;8.17;2.30;;;4.60;99.90;;;;;;5053852;28;20266;-80
2020/12/28 10:00:25;;;;;;;5.63;2.07;;;4.80;99.90;;;;;;5065452;28;20217;-81
2020/12/28 10:02:51;;;;;;;9.03;2.20;;;4.90;99.90;;;;;;5071847;28;20207;-80
2020/12/28 10:05:18;;;;;;;8.53;2.37;;;5.00;99.90;;;;;;5067247;28;20681;-79
2020/12/28 10:07:44;;;;;;;7.97;2.47;;;5.10;99.90;;;;;;5063150;28;20249;-80
2020/12/28 10:10:10;;;;;;;13.83;2.23;;;5.20;99.90;;;;;;5069938;28;20575;-80
2020/12/28 10:12:38;;;;;;;7.23;2.33;;;5.30;99.90;;;;;;5068329;28;20547;-80
2020/12/28 10:15:05;;;;;;;11.57;2.50;;;5.30;99.90;;;;;;5068002;28;20263;-80
2020/12/28 10:17:33;;;;;;;9.50;2.47;;;5.40;99.90;;;;;;5070872;28;20748;-80
2020/12/28 10:19:59;;;;;;;8.70;2.47;;;5.40;99.90;;;;;;5071854;28;20931;-79
2020/12/28 10:22:27;;;;;;;5.17;2.40;;;5.50;99.90;;;;;;5062602;28;20295;-80
2020/12/28 10:24:53;;;;;;;9.60;2.40;;;5.60;99.90;;;;;;5066335;28;20220;-80
2020/12/28 10:27:20;;;;;;;3.73;2.00;;;5.60;99.90;;;;;;5065003;28;20238;-80
2020/12/28 10:29:46;;;;;;;8.70;2.37;;;5.70;99.90;;;;;;5051553;28;20270;-80
2020/12/28 10:32:13;;;;;;;4.70;2.17;;;5.70;99.90;;;;;;5058901;28;20219;-80
2020/12/28 10:34:40;;;;;;;7.17;2.20;;;5.80;99.90;;;;;;5062823;28;20200;-80
2020/12/28 10:37:06;;;;;;;9.87;2.30;;;5.70;99.90;;;;;;5059638;28;20201;-79
2020/12/28 10:39:33;;;;;;;6.30;2.10;;;5.80;99.90;;;;;;5054440;28;20202;-80
2020/12/28 10:42:03;;;;;;;5.03;1.77;;;5.70;99.90;;;;;;5064688;28;20200;-80
2020/12/28 10:44:30;;;;;;;7.87;2.33;;;5.80;99.90;;;;;;5067063;28;20697;-80
2020/12/28 10:46:56;;;;;;;7.13;1.70;;;5.90;99.90;;;;;;5058531;28;20202;-80
2020/12/28 10:49:22;;;;;;;7.93;2.17;;;6.00;99.90;;;;;;5060357;28;20192;-80
2020/12/28 10:51:49;;;;;;;9.73;2.73;;;6.00;99.90;;;;;;5062651;28;20201;-80
2020/12/28 10:54:16;;;;;;;10.93;2.10;;;6.10;99.90;;;;;;5053160;28;20289;-79
2020/12/28 10:56:42;;;;;;;8.80;2.13;;;6.00;99.90;;;;;;5063622;28;20212;-80
2020/12/28 10:59:08;;;;;;;4.30;2.00;;;6.00;99.90;;;;;;5055427;28;20294;-79
2020/12/28 11:01:35;;;;;;;3.57;1.77;;;6.10;99.90;;;;;;5065374;28;20600;-80
2020/12/28 11:04:01;;;;;;;7.83;1.63;;;6.10;99.90;;;;;;5070302;28;20205;-79
2020/12/28 11:06:27;;;;;;;8.20;2.17;;;6.20;99.90;;;;;;5069720;28;20197;-79
2020/12/28 11:08:55;;;;;;;11.03;2.33;;;6.40;99.90;;;;;;5064280;28;20204;-80
2020/12/28 11:11:21;;;;;;;14.10;2.70;;;6.40;99.90;;;;;;5057862;28;20289;-80
2020/12/28 11:13:48;;;;;;;7.37;1.90;;;6.40;99.90;;;;;;5053830;28;20716;-79
2020/12/28 11:16:15;;;;;;;4.10;1.80;;;6.30;99.90;;;;;;5059025;28;20205;-81
2020/12/28 11:18:41;;;;;;;10.47;2.00;;;6.20;99.90;;;;;;5053354;28;20203;-79
2020/12/28 11:21:08;;;;;;;7.83;2.00;;;6.30;99.90;;;;;;5059622;28;20434;-79
2020/12/28 11:26:20;;;;;;;6.43;2.50;;;6.40;99.90;;;;;;5057252;28;20210;-80
2020/12/28 11:28:46;;;;;;;6.20;2.10;;;6.40;99.90;;;;;;5061798;28;20210;-79
2020/12/28 11:31:17;;;;;;;7.13;2.47;;;6.40;99.90;;;;;;5052874;28;20201;-79
2020/12/28 11:33:43;;;;;;;4.50;1.93;;;6.40;99.90;;;;;;5057316;28;20673;-80
2020/12/28 11:36:10;;;;;;;4.90;1.90;;;6.50;99.90;;;;;;5060876;28;20197;-79
2020/12/28 11:38:36;;;;;;;9.73;2.40;;;6.40;99.90;;;;;;5064250;28;20337;-79
2020/12/28 11:41:03;;;;;;;6.37;1.87;;;6.50;99.90;;;;;;5068038;28;20654;-79
2020/12/28 11:43:31;;;;;;;4.97;2.17;;;6.40;99.90;;;;;;5058701;28;20696;-79
2020/12/28 11:45:57;;;;;;;7.70;2.20;;;6.40;99.90;;;;;;5058909;28;20308;-79
2020/12/28 11:48:23;;;;;;;7.73;2.40;;;6.40;99.90;;;;;;5063061;28;20209;-79
2020/12/28 11:50:50;;;;;;;6.87;1.90;;;6.50;99.90;;;;;;5065191;28;20200;-79
2020/12/28 11:53:16;;;;;;;7.00;1.80;;;6.40;99.90;;;;;;5062747;28;20615;-79
2020/12/28 11:56:02;;;;;;;4.73;1.43;;;6.60;99.90;;;;;;5064457;28;20204;-79
2020/12/28 11:58:30;;;;;;;9.67;1.93;;;6.60;99.90;;;;;;5065445;28;20808;-79
2020/12/28 12:00:57;;;;;;;5.63;1.73;;;6.80;99.90;;;;;;5051719;28;20205;-79
2020/12/28 12:03:23;;;;;;;5.53;1.90;;;6.80;99.90;;;;;;5057530;28;20202;-79
2020/12/28 12:05:50;;;;;;;6.83;1.90;;;6.90;99.90;;;;;;5057331;28;20256;-79
2020/12/28 12:08:16;;;;;;;6.53;2.40;;;6.90;99.90;;;;;;5055863;28;20214;-80
2020/12/28 12:10:43;;;;;;;6.10;2.43;;;6.90;99.90;;;;;;5056086;28;20198;-79
2020/12/28 12:13:09;;;;;;;7.30;1.87;;;6.90;99.90;;;;;;5055007;28;20206;-80
2020/12/28 12:15:42;;;;;;;4.53;2.03;;;6.80;99.90;;;;;;5057822;28;20197;-80
2020/12/28 12:18:09;;;;;;;3.67;1.97;;;6.80;99.90;;;;;;5056998;28;20270;-80
2020/12/28 12:20:35;;;;;;;7.97;2.07;;;6.80;99.90;;;;;;5055482;28;20619;-79
2020/12/28 12:23:01;;;;;;;7.10;1.90;;;6.70;99.90;;;;;;5059623;28;20201;-80
2020/12/28 12:25:28;;;;;;;5.83;2.20;;;6.70;99.90;;;;;;5056709;28;20264;-80
2020/12/28 12:27:54;;;;;;;7.80;2.10;;;6.70;99.90;;;;;;5060947;28;20216;-80
2020/12/28 12:30:20;;;;;;;6.33;1.87;;;6.60;99.90;;;;;;5067522;28;20668;-80
2020/12/28 12:32:47;;;;;;;3.07;1.70;;;6.60;99.90;;;;;;5067945;28;20264;-80
2020/12/28 12:35:14;;;;;;;5.33;2.00;;;6.60;99.90;;;;;;5056674;28;20205;-80
2020/12/28 12:37:40;;;;;;;4.67;1.70;;;6.70;99.90;;;;;;5067338;28;20216;-80
2020/12/28 12:40:07;;;;;;;8.57;2.10;;;6.80;99.90;;;;;;5066477;28;20201;-80
2020/12/28 12:42:33;;;;;;;4.70;1.80;;;7.00;99.90;;;;;;5050344;28;20211;-80
2020/12/28 12:45:00;;;;;;;3.83;1.90;;;7.00;99.90;;;;;;5069989;28;20228;-80
2020/12/28 12:47:26;;;;;;;5.07;2.10;;;7.20;99.90;;;;;;5058695;28;20263;-80
2020/12/28 12:49:53;;;;;;;4.63;1.80;;;7.30;99.90;;;;;;5065734;28;20537;-80
2020/12/28 12:52:23;;;;;;;4.90;1.60;;;7.50;99.90;;;;;;5062614;28;20204;-80
2020/12/28 12:54:49;;;;;;;4.73;1.80;;;7.50;99.90;;;;;;5067237;28;20198;-80
2020/12/28 12:57:17;;;;;;;7.07;2.00;;;7.80;99.90;;;;;;5069634;28;20201;-80